Spokane International Airport
KGEG : rendu visible

Aérodrome :











RETROUVEZ-NOUS SUR...

 
LOGIN :

S'inscrire | Disclaimer

   EN    FR    IT 

 









Légende :    VFR   VFR Marginal   IFR   IFR Intensif   IFR Très Intensif
Visi : 
Plafond : 
>= 8 km
>= 3000ft
5 à 8 km
1000 à 3000 ft
1500m à 5 km
500 à 1000 ft
800 à 1500m
200 à 500 ft
< 800m
< 200 ft
Symboles :   Orages  Brouillard  Fortes neiges  Fortes précipitations  Vent > 20 kt






- Altitude de l'aérodrome : 2376 ft
- Code IATA : GEG


KGEG - Spokane International

DERNIER METAR :
  • 310953Z 15007KT 10SM CLR 01/M03 A3023 RMK AO2 SLP247 T00061033

METARs EXPIRÉS :
  • 310853Z 15006KT 10SM CLR 01/M04 A3020 RMK AO2 SLP236 T00111039 51033
  • 310753Z 16006KT 10SM CLR 02/M04 A3017 RMK AO2 SLP225 T00221039 401390017

TAF KGEG
Valide du 31 à 06h jusqu'au 01 à 06h UTC


310520Z 3106/0106 24006KT P6SM SKC
FM310800 21004KT P6SM SKC
FM311300 VRB04KT P6SM SCT150
FM010300 04004KT P6SM FEW100 SCT250
FIR KZSE / Amérique du Nord



MET'MAP, la Météo Aéronautique d'un coup d'oeil ! - Copyright ORBIFLY Décembre 2007 - Disclaimer

ORBIFLY MET'MAP TEAM :

Programmation & Développement : Alexandra Zaïnal
Sur une idée originale de : Baudouin d'Aumeries
Assistance à la programmation : Marc-Olivier Méhu
Soutien technique & logistique : Manuel Goepfert

Contact : metmap@orbifly.com




SOURCES & CREDITS :

   NOAA       Earth
Advisory